Time;durP1;ratioP1;P1;durP2;ratioP2;P2;SDS_P1;SDS_P2;PMS_P1;PMS_P2;Temp;Humidity;BMP_temperature;BMP_pressure;BME280_temperature;BME280_humidity;BME280_pressure;Samples;Min_cycle;Max_cycle;Signal;HPM_P1;HPM_P2
2021/03/28 00:01:06;;;;;;;1999.90;999.90;;;17.50;69.80;;;;;;5053762;28;20153;-47
2021/03/28 00:03:46;;;;;;;1999.90;999.90;;;17.60;69.60;;;;;;5053697;28;20248;-46
2021/03/28 00:06:15;;;;;;;1999.90;999.90;;;17.50;69.40;;;;;;5053631;28;20671;-45
2021/03/28 00:08:46;;;;;;;1999.90;999.90;;;17.40;68.70;;;;;;5053637;28;20165;-48
2021/03/28 00:11:20;;;;;;;1999.90;999.90;;;17.40;70.00;;;;;;5053396;28;20161;-48
2021/03/28 00:13:58;;;;;;;1999.90;999.90;;;17.50;68.50;;;;;;5053289;28;20579;-42
2021/03/28 00:16:31;;;;;;;1999.90;999.90;;;17.50;68.40;;;;;;5053249;28;20165;-47
2021/03/28 00:19:21;;;;;;;1999.90;999.90;;;17.50;68.30;;;;;;5053653;28;20169;-50
2021/03/28 00:22:12;;;;;;;1999.90;999.90;;;17.50;67.50;;;;;;5046912;28;20185;-51
2021/03/28 00:24:52;;;;;;;1999.90;999.90;;;17.60;67.40;;;;;;5052267;28;20173;-50
2021/03/28 00:27:28;;;;;;;1999.90;999.90;;;17.70;67.30;;;;;;5053115;28;20203;-49
2021/03/28 00:30:21;;;;;;;1999.90;999.90;;;17.70;67.20;;;;;;5053147;28;20658;-45
2021/03/28 00:32:54;;;;;;;1999.90;999.90;;;17.70;66.80;;;;;;5053161;28;20161;-49
2021/03/28 00:35:27;;;;;;;1999.90;999.90;;;17.70;66.60;;;;;;5052813;28;20228;-49
2021/03/28 00:38:14;;;;;;;1999.90;999.90;;;17.70;67.10;;;;;;5053172;28;20157;-51
2021/03/28 00:40:42;;;;;;;1999.90;999.90;;;17.60;67.80;;;;;;5053088;28;20171;-50
2021/03/28 00:43:17;;;;;;;1999.90;999.90;;;17.60;69.00;;;;;;5052944;28;20197;-46
2021/03/28 00:45:44;;;;;;;1999.90;999.90;;;17.60;69.10;;;;;;5052842;28;20201;-50
2021/03/28 00:48:49;;;;;;;1999.90;999.90;;;17.60;70.30;;;;;;5052933;28;20191;-49
2021/03/28 00:51:23;;;;;;;1999.90;999.90;;;17.50;70.90;;;;;;5031999;28;20539;-43
2021/03/28 00:54:00;;;;;;;1999.90;999.90;;;17.40;70.80;;;;;;5052884;28;20156;-48
2021/03/28 00:56:45;;;;;;;1999.90;999.90;;;17.30;70.40;;;;;;5052806;28;20173;-49
2021/03/28 00:59:30;;;;;;;1999.90;999.90;;;17.30;71.40;;;;;;5052890;28;20184;-48
2021/03/28 01:02:20;;;;;;;1999.90;999.90;;;17.20;70.10;;;;;;5052733;28;20175;-49
2021/03/28 01:05:04;;;;;;;1999.90;999.90;;;17.30;71.60;;;;;;5052750;28;20168;-50
2021/03/28 01:07:48;;;;;;;1999.90;999.90;;;17.20;73.00;;;;;;5052864;28;20199;-50
2021/03/28 01:10:36;;;;;;;1999.90;999.90;;;17.10;73.50;;;;;;5052721;28;20264;-49
2021/03/28 01:13:40;;;;;;;1999.90;999.90;;;17.10;73.90;;;;;;5052882;28;20188;-51
2021/03/28 01:16:34;;;;;;;1999.90;999.90;;;17.00;74.40;;;;;;5052769;28;20187;-44
2021/03/28 01:19:22;;;;;;;1999.90;999.90;;;17.00;74.40;;;;;;5052680;28;20168;-50
2021/03/28 01:22:03;;;;;;;1999.90;999.90;;;17.00;74.60;;;;;;5052621;28;20166;-48
2021/03/28 01:24:39;;;;;;;1999.90;999.90;;;16.80;74.70;;;;;;5052695;28;20169;-52
2021/03/28 01:27:29;;;;;;;1999.90;999.90;;;16.80;75.20;;;;;;5052709;28;20205;-49
2021/03/28 01:30:10;;;;;;;1999.90;999.90;;;16.80;74.50;;;;;;5052620;28;20158;-48
2021/03/28 01:32:42;;;;;;;1999.90;999.90;;;16.70;75.50;;;;;;5052903;28;20173;-49
2021/03/28 01:35:14;;;;;;;1999.90;999.90;;;16.80;75.40;;;;;;5053156;28;20229;-43
2021/03/28 01:38:10;;;;;;;1999.90;999.90;;;16.80;75.20;;;;;;5056526;28;20180;-49
2021/03/28 01:41:12;;;;;;;1999.90;999.90;;;16.70;75.40;;;;;;5056539;28;20158;-48
2021/03/28 01:43:53;;;;;;;1999.90;999.90;;;16.60;76.10;;;;;;5047587;28;20185;-49
2021/03/28 01:46:57;;;;;;;1999.90;999.90;;;16.50;77.00;;;;;;5056141;28;20250;-51
2021/03/28 01:49:47;;;;;;;1999.90;999.90;;;16.50;77.50;;;;;;5056103;28;20177;-50
2021/03/28 01:52:48;;;;;;;1999.90;999.90;;;16.40;77.70;;;;;;5056242;28;20600;-52
2021/03/28 01:55:28;;;;;;;1999.90;999.90;;;16.40;78.30;;;;;;5056282;28;20161;-49
2021/03/28 01:58:39;;;;;;;1999.90;999.90;;;16.30;78.90;;;;;;5056150;28;20526;-47
2021/03/28 02:01:39;;;;;;;1999.90;999.90;;;16.20;78.90;;;;;;5051602;28;20207;-47
2021/03/28 02:04:45;;;;;;;1999.90;999.90;;;16.20;80.00;;;;;;5056037;28;20612;-49
2021/03/28 02:08:02;;;;;;;1999.90;999.90;;;16.20;80.20;;;;;;5055713;28;20697;-42
2021/03/28 02:10:41;;;;;;;1999.90;999.90;;;16.30;79.30;;;;;;5047361;28;20181;-45
2021/03/28 02:13:51;;;;;;;1999.90;999.90;;;16.20;79.10;;;;;;5055811;28;20260;-47
2021/03/28 02:16:28;;;;;;;1999.90;999.90;;;16.20;78.20;;;;;;5042607;28;20537;-45
2021/03/28 02:19:19;;;;;;;1999.90;999.90;;;16.20;78.50;;;;;;5055784;28;20188;-49
2021/03/28 02:21:56;;;;;;;1999.90;999.90;;;16.20;78.60;;;;;;5055551;28;20173;-46
2021/03/28 02:24:26;;;;;;;1999.90;999.90;;;16.20;79.30;;;;;;5055539;28;20172;-49
2021/03/28 02:27:13;;;;;;;1999.90;999.90;;;16.10;79.90;;;;;;5055362;28;20193;-47
2021/03/28 02:30:13;;;;;;;1999.90;999.90;;;16.20;80.50;;;;;;5055650;28;20162;-48
2021/03/28 02:33:11;;;;;;;1999.90;999.90;;;16.10;80.60;;;;;;5055524;28;20203;-47
2021/03/28 02:35:40;;;;;;;1999.90;999.90;;;16.00;81.10;;;;;;5055128;28;20217;-38
2021/03/28 02:38:29;;;;;;;1999.90;999.90;;;16.00;82.00;;;;;;5055149;28;20165;-44
2021/03/28 02:41:19;;;;;;;1999.90;999.90;;;15.90;82.50;;;;;;5055183;28;20161;-48
2021/03/28 02:44:11;;;;;;;1999.90;999.90;;;15.90;82.60;;;;;;5055189;28;20620;-47
2021/03/28 02:47:08;;;;;;;1999.90;999.90;;;15.90;83.40;;;;;;5054061;28;20212;-44
2021/03/28 02:50:04;;;;;;;1999.90;999.90;;;15.80;82.90;;;;;;5055220;28;20191;-48
2021/03/28 02:52:48;;;;;;;1999.90;999.90;;;15.80;83.60;;;;;;5054923;28;20161;-47
2021/03/28 02:55:39;;;;;;;1999.90;999.90;;;15.80;83.70;;;;;;5054887;28;20165;-38
2021/03/28 02:58:08;;;;;;;1999.90;999.90;;;15.70;84.20;;;;;;5054845;28;20227;-50
2021/03/28 03:01:12;;;;;;;1999.90;999.90;;;15.60;84.30;;;;;;5054777;28;20200;-47
2021/03/28 03:03:46;;;;;;;1999.90;999.90;;;15.70;84.80;;;;;;5054618;28;20222;-48
2021/03/28 03:06:19;;;;;;;1999.90;999.90;;;15.60;85.30;;;;;;5054668;28;20282;-49
2021/03/28 03:09:25;;;;;;;1999.90;999.90;;;15.50;85.20;;;;;;5054529;28;20675;-36
2021/03/28 03:12:30;;;;;;;1999.90;999.90;;;15.50;85.30;;;;;;5054512;28;20165;-46
2021/03/28 03:15:18;;;;;;;1999.90;999.90;;;15.50;85.30;;;;;;5054137;28;20227;-48
2021/03/28 03:18:18;;;;;;;1999.90;999.90;;;15.60;85.20;;;;;;5054575;28;20166;-45
2021/03/28 03:21:21;;;;;;;1999.90;999.90;;;15.60;84.80;;;;;;5054604;28;20245;-49
2021/03/28 03:24:39;;;;;;;1999.90;999.90;;;15.50;84.40;;;;;;5054300;28;20664;-47
2021/03/28 03:27:37;;;;;;;1999.90;999.90;;;15.60;85.00;;;;;;5031327;28;20213;-50
2021/03/28 03:30:13;;;;;;;1999.90;999.90;;;15.50;84.50;;;;;;5054206;28;20157;-47
2021/03/28 03:32:55;;;;;;;1999.90;999.90;;;15.50;84.70;;;;;;5054261;28;20161;-50
2021/03/28 03:35:54;;;;;;;1999.90;999.90;;;15.50;84.80;;;;;;5053875;28;20224;-48
2021/03/28 03:38:58;;;;;;;1999.90;999.90;;;15.60;85.20;;;;;;5054126;28;20158;-47
2021/03/28 03:41:43;;;;;;;1999.90;999.90;;;15.50;85.10;;;;;;5053911;28;20193;-50
2021/03/28 03:44:23;;;;;;;1999.90;999.90;;;15.40;84.60;;;;;;5053901;28;20554;-48
2021/03/28 03:47:06;;;;;;;1999.90;999.90;;;15.40;84.90;;;;;;5053741;28;20201;-51
2021/03/28 03:50:00;;;;;;;1999.90;999.90;;;15.40;85.80;;;;;;5053843;28;20244;-51
2021/03/28 03:52:52;;;;;;;1999.90;999.90;;;15.30;86.00;;;;;;5053785;28;20161;-47
2021/03/28 03:55:24;;;;;;;1999.90;999.90;;;15.30;86.90;;;;;;5053913;28;20149;-47
2021/03/28 03:58:23;;;;;;;1999.90;999.90;;;15.20;87.00;;;;;;5053728;28;20172;-45
2021/03/28 04:00:59;;;;;;;1999.90;999.90;;;15.20;87.60;;;;;;5053896;28;20512;-35
2021/03/28 04:03:30;;;;;;;1999.90;999.90;;;15.20;88.10;;;;;;5053663;28;20628;-47
2021/03/28 04:06:25;;;;;;;1999.90;999.90;;;15.30;88.20;;;;;;5053473;28;20199;-46
2021/03/28 04:09:24;;;;;;;1999.90;999.90;;;15.30;87.60;;;;;;5053505;28;20179;-44
2021/03/28 04:12:29;;;;;;;1999.90;999.90;;;15.40;87.30;;;;;;5030712;28;20237;-47
2021/03/28 04:15:24;;;;;;;1999.90;999.90;;;15.40;87.60;;;;;;5053434;28;20165;-47
2021/03/28 04:18:28;;;;;;;1999.90;999.90;;;15.50;86.90;;;;;;5035927;28;20181;-48
2021/03/28 04:21:32;;;;;;;1999.90;999.90;;;15.40;86.90;;;;;;5053520;28;20605;-47
2021/03/28 04:24:06;;;;;;;1999.90;999.90;;;15.40;86.90;;;;;;5053250;28;20168;-36
2021/03/28 04:26:51;;;;;;;1999.90;999.90;;;15.30;87.30;;;;;;5053195;28;20193;-47
2021/03/28 04:29:19;;;;;;;1999.90;999.90;;;15.30;86.90;;;;;;5053590;28;20171;-42
2021/03/28 04:32:00;;;;;;;1999.90;999.90;;;15.30;86.70;;;;;;5053044;28;20177;-47
2021/03/28 04:34:39;;;;;;;1999.90;999.90;;;15.30;86.80;;;;;;5052828;28;20303;-47
2021/03/28 04:37:24;;;;;;;1999.90;999.90;;;15.20;87.00;;;;;;5053011;28;20169;-44
2021/03/28 04:40:30;;;;;;;1999.90;999.90;;;15.20;87.20;;;;;;5052945;28;20640;-47
2021/03/28 04:43:40;;;;;;;1999.90;999.90;;;15.30;87.20;;;;;;5053217;28;20696;-48
2021/03/28 04:46:28;;;;;;;1999.90;999.90;;;15.20;87.30;;;;;;5052984;28;20193;-41
2021/03/28 04:49:31;;;;;;;1999.90;999.90;;;15.20;87.60;;;;;;5052999;28;20168;-44
2021/03/28 04:52:30;;;;;;;1999.90;999.90;;;15.10;88.40;;;;;;5052989;28;20175;-47
2021/03/28 04:55:15;;;;;;;1999.90;999.90;;;15.10;87.90;;;;;;5052883;28;20222;-45
2021/03/28 04:57:42;;;;;;;1999.90;999.90;;;15.00;88.70;;;;;;5052853;28;20567;-47
2021/03/28 05:00:45;;;;;;;1999.90;999.90;;;14.90;89.10;;;;;;5052989;28;20222;-47
2021/03/28 05:04:00;;;;;;;1999.90;999.90;;;14.90;89.70;;;;;;5052732;28;20175;-47
2021/03/28 05:06:54;;;;;;;1999.90;999.90;;;15.10;88.80;;;;;;5010817;28;20206;-44
2021/03/28 05:09:57;;;;;;;1999.90;999.90;;;15.20;88.50;;;;;;5011293;28;20221;-47
2021/03/28 05:12:36;;;;;;;1999.90;999.90;;;15.20;87.20;;;;;;5056466;28;20177;-47
2021/03/28 05:15:14;;;;;;;1999.90;999.90;;;15.20;88.10;;;;;;5057095;28;20215;-47
2021/03/28 05:17:47;;;;;;;1999.90;999.90;;;15.10;88.20;;;;;;5056690;28;20157;-47
2021/03/28 05:20:38;;;;;;;1999.90;999.90;;;15.20;88.40;;;;;;5056649;28;20628;-47
2021/03/28 05:23:28;;;;;;;1999.90;999.90;;;15.30;87.70;;;;;;5056505;28;20170;-48
2021/03/28 05:26:06;;;;;;;1999.90;999.90;;;15.30;87.40;;;;;;5056651;28;20224;-49
2021/03/28 05:29:25;;;;;;;1999.90;999.90;;;15.30;87.80;;;;;;5056446;28;20612;-47
2021/03/28 05:32:34;;;;;;;1999.90;999.90;;;15.30;87.70;;;;;;5050950;28;20196;-49
2021/03/28 05:35:49;;;;;;;1999.90;999.90;;;15.40;88.40;;;;;;5055863;28;20232;-49
2021/03/28 05:38:34;;;;;;;1999.90;999.90;;;15.50;87.70;;;;;;5019604;28;20270;-50
2021/03/28 05:41:16;;;;;;;1999.90;999.90;;;15.60;87.40;;;;;;5056281;28;20240;-48
2021/03/28 05:44:04;;;;;;;1999.90;999.90;;;15.70;86.10;;;;;;5056163;28;20600;-48
2021/03/28 05:47:06;;;;;;;1999.90;999.90;;;15.70;86.40;;;;;;5056139;28;20250;-49
2021/03/28 05:50:00;;;;;;;1999.90;999.90;;;15.90;85.40;;;;;;5053906;28;20181;-46
2021/03/28 05:52:51;;;;;;;1999.90;999.90;;;16.00;85.80;;;;;;5056111;28;20157;-47
2021/03/28 05:55:45;;;;;;;1999.90;999.90;;;16.20;83.10;;;;;;5055985;28;20231;-46
2021/03/28 05:58:37;;;;;;;1999.90;999.90;;;16.30;83.00;;;;;;5055986;28;20212;-48
2021/03/28 06:01:25;;;;;;;1999.90;999.90;;;16.50;83.30;;;;;;5055842;28;20556;-48
2021/03/28 06:04:21;;;;;;;1999.90;999.90;;;16.70;83.10;;;;;;5055858;28;20161;-48
2021/03/28 06:07:26;;;;;;;1999.90;999.90;;;16.90;81.60;;;;;;5036286;28;20229;-48
2021/03/28 06:10:34;;;;;;;1999.90;999.90;;;17.10;81.40;;;;;;5055664;28;20615;-48
2021/03/28 06:13:19;;;;;;;1999.90;999.90;;;17.30;79.90;;;;;;5050004;28;20177;-39
2021/03/28 06:16:10;;;;;;;1999.90;999.90;;;17.50;78.60;;;;;;5055603;28;20161;-51
2021/03/28 06:18:55;;;;;;;1999.90;999.90;;;17.60;77.40;;;;;;5055714;28;20153;-48
2021/03/28 06:21:59;;;;;;;1999.90;999.90;;;17.70;77.50;;;;;;5054478;28;20173;-46
2021/03/28 06:25:08;;;;;;;1999.90;999.90;;;18.00;75.70;;;;;;5055492;28;20180;-49
2021/03/28 06:28:10;;;;;;;1999.90;999.90;;;18.10;75.30;;;;;;5055260;28;20663;-50
2021/03/28 06:31:20;;;;;;;1999.90;999.90;;;18.30;74.50;;;;;;5055230;28;20333;-46
2021/03/28 06:34:08;;;;;;;1999.90;999.90;;;18.50;73.50;;;;;;5054966;28;20196;-50
2021/03/28 06:36:54;;;;;;;1999.90;999.90;;;18.80;72.10;;;;;;5055166;28;20166;-42
2021/03/28 06:39:29;;;;;;;1999.90;999.90;;;19.10;70.80;;;;;;5054797;28;20182;-42
2021/03/28 06:42:21;;;;;;;1999.90;999.90;;;19.40;68.90;;;;;;5054960;28;20231;-45
2021/03/28 06:44:50;;;;;;;1999.90;999.90;;;19.70;65.20;;;;;;5054992;28;20628;-47
2021/03/28 06:48:00;;;;;;;1999.90;999.90;;;20.00;64.30;;;;;;5054714;28;20215;-47
2021/03/28 06:50:41;;;;;;;1999.90;999.90;;;20.20;61.30;;;;;;5053221;28;20173;-51
2021/03/28 06:53:27;;;;;;;1999.90;999.90;;;20.50;59.00;;;;;;5054928;28;20161;-41
2021/03/28 06:56:50;;;;;;;1999.90;999.90;;;20.60;58.60;;;;;;5054826;28;20655;-44
2021/03/28 06:59:46;;;;;;;1999.90;999.90;;;20.70;56.80;;;;;;5054685;28;20291;-41
2021/03/28 07:03:03;;;;;;;1999.90;999.90;;;20.80;55.90;;;;;;5054535;28;20166;-47
2021/03/28 07:05:49;;;;;;;1999.90;999.90;;;20.90;56.20;;;;;;5054512;28;20175;-50
2021/03/28 07:08:39;;;;;;;1999.90;999.90;;;21.20;56.90;;;;;;5054551;28;20537;-42
2021/03/28 07:11:21;;;;;;;1999.90;999.90;;;21.40;55.10;;;;;;5054520;28;20519;-47
2021/03/28 07:14:06;;;;;;;1999.90;999.90;;;21.50;54.80;;;;;;5054430;28;20524;-49
2021/03/28 07:16:42;;;;;;;1999.90;999.90;;;21.70;53.30;;;;;;5054408;28;20568;-47
2021/03/28 07:19:44;;;;;;;1999.90;999.90;;;21.80;51.80;;;;;;5054232;28;20165;-49
2021/03/28 07:22:48;;;;;;;1999.90;999.90;;;21.80;52.60;;;;;;5048651;28;20181;-49
2021/03/28 07:25:25;;;;;;;1999.90;999.90;;;21.90;52.30;;;;;;5054449;28;20165;-47
2021/03/28 07:28:15;;;;;;;1999.90;999.90;;;22.20;52.90;;;;;;5054062;28;20204;-53
2021/03/28 07:31:02;;;;;;;1999.90;999.90;;;22.50;52.20;;;;;;5054205;28;20161;-50
2021/03/28 07:33:50;;;;;;;1999.90;999.90;;;22.70;51.20;;;;;;5053591;28;20164;-44
2021/03/28 07:36:44;;;;;;;1999.90;999.90;;;23.00;50.10;;;;;;5054258;28;20166;-48
2021/03/28 07:39:29;;;;;;;1999.90;999.90;;;23.20;48.30;;;;;;5053858;28;20168;-51
2021/03/28 07:42:32;;;;;;;1999.90;999.90;;;23.40;48.50;;;;;;5053815;28;20248;-52
2021/03/28 07:45:27;;;;;;;1999.90;999.90;;;23.90;47.40;;;;;;5053752;28;20230;-53
2021/03/28 07:48:12;;;;;;;1999.90;999.90;;;24.30;46.80;;;;;;5053797;28;20189;-55
2021/03/28 07:51:10;;;;;;;1999.90;999.90;;;24.80;45.20;;;;;;5053712;28;20169;-44
2021/03/28 07:53:42;;;;;;;1999.90;999.90;;;25.10;45.20;;;;;;5053731;28;20164;-47
2021/03/28 07:56:15;;;;;;;1999.90;999.90;;;25.60;43.40;;;;;;5053569;28;20160;-38
2021/03/28 07:58:58;;;;;;;1999.90;999.90;;;26.00;40.90;;;;;;5053607;28;20165;-49
2021/03/28 08:01:45;;;;;;;1999.90;999.90;;;26.60;39.90;;;;;;5053371;28;20222;-44
2021/03/28 08:04:34;;;;;;;1999.90;999.90;;;27.10;38.70;;;;;;5053409;28;20157;-50
2021/03/28 08:07:30;;;;;;;1999.90;999.90;;;27.10;38.50;;;;;;5053228;28;20192;-49
2021/03/28 08:10:21;;;;;;;1999.90;999.90;;;27.70;37.70;;;;;;5053296;28;20157;-48
2021/03/28 08:12:57;;;;;;;1999.90;999.90;;;28.20;36.20;;;;;;5053120;28;20252;-45
2021/03/28 08:15:37;;;;;;;1999.90;999.90;;;28.70;35.90;;;;;;5053280;28;20485;-49
2021/03/28 08:18:13;;;;;;;1999.90;999.90;;;29.00;35.70;;;;;;5053019;28;20166;-49
2021/03/28 08:21:08;;;;;;;1999.90;999.90;;;29.70;34.40;;;;;;5052881;28;20164;-36
2021/03/28 08:24:02;;;;;;;1999.90;999.90;;;29.50;34.40;;;;;;5051263;28;20207;-47
2021/03/28 08:26:42;;;;;;;1999.90;999.90;;;29.20;33.70;;;;;;5052414;28;20255;-48
2021/03/28 08:29:26;;;;;;;1999.90;999.90;;;29.90;33.60;;;;;;5052381;28;20176;-50
2021/03/28 08:31:59;;;;;;;1999.90;999.90;;;30.10;32.30;;;;;;5052760;28;20161;-47
2021/03/28 08:35:06;;;;;;;1999.90;999.90;;;30.50;33.00;;;;;;5052487;28;20221;-47
2021/03/28 08:37:57;;;;;;;1999.90;999.90;;;30.60;32.40;;;;;;5052664;28;20214;-49
2021/03/28 08:41:01;;;;;;;1999.90;999.90;;;31.00;31.50;;;;;;5052759;28;20200;-50
2021/03/28 08:43:55;;;;;;;1999.90;999.90;;;31.10;31.00;;;;;;5052690;28;20337;-50
2021/03/28 08:46:22;;;;;;;1999.90;999.90;;;30.90;30.90;;;;;;5052007;28;20185;-48
2021/03/28 08:49:15;;;;;;;1999.90;999.90;;;30.40;31.00;;;;;;5052557;28;20176;-49
2021/03/28 08:52:17;;;;;;;1999.90;999.90;;;30.30;31.70;;;;;;5036706;28;20185;-48
2021/03/28 08:55:28;;;;;;;1999.90;999.90;;;29.80;32.60;;;;;;5052699;28;20573;-37
2021/03/28 08:58:33;;;;;;;1999.90;999.90;;;30.00;32.00;;;;;;5052595;28;20169;-50
2021/03/28 09:01:06;;;;;;;1999.90;999.90;;;30.00;31.70;;;;;;5052257;28;20181;-52
2021/03/28 09:04:13;;;;;;;1999.90;999.90;;;30.30;32.10;;;;;;5052603;28;20153;-50
2021/03/28 09:06:58;;;;;;;1999.90;999.90;;;30.50;31.30;;;;;;5052225;28;20235;-52
2021/03/28 09:09:43;;;;;;;1999.90;999.90;;;29.60;32.20;;;;;;5052507;28;20651;-51
2021/03/28 09:12:10;;;;;;;1999.90;999.90;;;29.70;33.00;;;;;;5052853;28;20590;-52
2021/03/28 09:14:46;;;;;;;1999.90;999.90;;;30.20;32.60;;;;;;5052409;28;20185;-54
2021/03/28 09:17:25;;;;;;;1999.90;999.90;;;30.90;30.60;;;;;;5052550;28;20157;-49
2021/03/28 09:20:07;;;;;;;1999.90;999.90;;;30.90;30.90;;;;;;5052193;28;20197;-51
2021/03/28 09:22:52;;;;;;;1999.90;999.90;;;31.00;30.70;;;;;;5052362;28;20204;-50
2021/03/28 09:25:42;;;;;;;1999.90;999.90;;;30.10;31.70;;;;;;5052403;28;20209;-43
2021/03/28 09:28:39;;;;;;;1999.90;999.90;;;29.80;32.10;;;;;;5052405;28;20170;-52
2021/03/28 09:31:37;;;;;;;1999.90;999.90;;;30.40;32.00;;;;;;5052287;28;20157;-52
2021/03/28 09:34:28;;;;;;;1999.90;999.90;;;31.00;31.60;;;;;;5052173;28;20217;-45
2021/03/28 09:37:16;;;;;;;1999.90;999.90;;;31.10;30.70;;;;;;5052103;28;20180;-48
2021/03/28 09:40:10;;;;;;;1999.90;999.90;;;31.50;30.60;;;;;;5052468;28;20162;-54
2021/03/28 09:42:37;;;;;;;1999.90;999.90;;;31.70;30.00;;;;;;5052198;28;20169;-54
2021/03/28 09:45:40;;;;;;;1999.90;999.90;;;31.20;30.40;;;;;;5052255;28;20177;-54
2021/03/28 09:48:32;;;;;;;1999.90;999.90;;;30.60;30.80;;;;;;5052204;28;20701;-52
2021/03/28 09:51:07;;;;;;;1999.90;999.90;;;30.10;31.30;;;;;;5052147;28;20539;-54
2021/03/28 09:53:59;;;;;;;1999.90;999.90;;;29.40;32.70;;;;;;5052054;28;20153;-52
2021/03/28 09:56:32;;;;;;;1999.90;999.90;;;29.20;33.20;;;;;;5053212;28;20158;-52
2021/03/28 09:58:59;;;;;;;1999.90;999.90;;;28.70;34.10;;;;;;5055710;28;20154;-54
2021/03/28 10:01:44;;;;;;;1999.90;999.90;;;28.60;34.80;;;;;;5055608;28;20172;-55
2021/03/28 10:04:29;;;;;;;1999.90;999.90;;;29.70;34.00;;;;;;5055562;28;20156;-55
2021/03/28 10:07:02;;;;;;;1999.90;999.90;;;29.30;32.10;;;;;;5055348;28;20236;-54
2021/03/28 10:09:53;;;;;;;1999.90;999.90;;;29.00;33.50;;;;;;5055411;28;20161;-55
2021/03/28 10:12:49;;;;;;;1999.90;999.90;;;29.00;33.50;;;;;;5055440;28;20169;-52
2021/03/28 10:15:18;;;;;;;1999.90;999.90;;;29.40;32.90;;;;;;5046551;28;20208;-56
2021/03/28 10:18:10;;;;;;;1999.90;999.90;;;29.50;32.60;;;;;;5054028;28;20165;-57
2021/03/28 10:21:00;;;;;;;1999.90;999.90;;;30.00;31.30;;;;;;5055088;28;20150;-50
2021/03/28 10:23:52;;;;;;;1999.90;999.90;;;30.50;30.00;;;;;;5055013;28;20535;-56
2021/03/28 10:26:37;;;;;;;1999.90;999.90;;;30.00;31.80;;;;;;5055122;28;20196;-52
2021/03/28 10:29:34;;;;;;;1999.90;999.90;;;30.30;31.80;;;;;;5054586;28;20236;-50
2021/03/28 10:32:26;;;;;;;1999.90;999.90;;;30.60;31.20;;;;;;5054811;28;20295;-56
2021/03/28 10:35:20;;;;;;;1999.90;999.90;;;30.10;31.70;;;;;;5054572;28;20309;-52
2021/03/28 10:38:06;;;;;;;1999.90;999.90;;;29.70;31.70;;;;;;5055011;28;20162;-45
2021/03/28 10:40:57;;;;;;;1999.90;999.90;;;30.50;30.40;;;;;;5055181;28;20149;-56
2021/03/28 10:43:53;;;;;;;1999.90;999.90;;;30.90;30.60;;;;;;5055087;28;20176;-54
2021/03/28 10:46:32;;;;;;;1999.90;999.90;;;29.50;32.30;;;;;;5054965;28;20254;-56
2021/03/28 10:49:27;;;;;;;1999.90;999.90;;;30.00;32.10;;;;;;5055000;28;20154;-47
2021/03/28 10:52:03;;;;;;;1999.90;999.90;;;30.80;31.50;;;;;;5055031;28;20203;-47
2021/03/28 10:54:48;;;;;;;1999.90;999.90;;;30.60;31.20;;;;;;5054970;28;20152;-56
2021/03/28 10:57:26;;;;;;;1999.90;999.90;;;30.10;32.10;;;;;;5054856;28;20169;-56
2021/03/28 11:00:24;;;;;;;1999.90;999.90;;;30.30;31.60;;;;;;5054953;28;20157;-55
2021/03/28 11:03:27;;;;;;;1999.90;999.90;;;30.40;31.30;;;;;;5054892;28;20183;-40
2021/03/28 11:06:26;;;;;;;1999.90;999.90;;;30.40;30.60;;;;;;5054723;28;20173;-37
2021/03/28 11:09:14;;;;;;;1999.90;999.90;;;30.40;30.90;;;;;;5053805;28;20200;-53
2021/03/28 11:11:53;;;;;;;1999.90;999.90;;;30.90;30.10;;;;;;5054459;28;20322;-57
2021/03/28 11:14:35;;;;;;;1999.90;999.90;;;31.30;28.50;;;;;;5054577;28;20157;-48
2021/03/28 11:17:19;;;;;;;1999.90;999.90;;;31.70;29.50;;;;;;5054516;28;20187;-56
2021/03/28 11:20:17;;;;;;;1999.90;999.90;;;31.60;29.40;;;;;;5054366;28;20212;-56
2021/03/28 11:22:49;;;;;;;1999.90;999.90;;;31.50;28.10;;;;;;5054418;28;20172;-56
2021/03/28 11:25:31;;;;;;;1999.90;999.90;;;31.60;27.10;;;;;;5054235;28;20569;-55
2021/03/28 11:28:03;;;;;;;1999.90;999.90;;;31.80;28.10;;;;;;5054193;28;20288;-53
2021/03/28 11:30:37;;;;;;;1999.90;999.90;;;32.00;28.80;;;;;;5054212;28;20150;-54
2021/03/28 11:33:28;;;;;;;1999.90;999.90;;;31.90;28.70;;;;;;5054044;28;20244;-55
2021/03/28 11:35:55;;;;;;;1999.90;999.90;;;31.70;29.20;;;;;;5054037;28;20209;-56
2021/03/28 11:38:22;;;;;;;1999.90;999.90;;;31.60;29.50;;;;;;5053929;28;20238;-53
2021/03/28 11:40:53;;;;;;;1999.90;999.90;;;31.50;29.60;;;;;;5053874;28;20545;-56
2021/03/28 11:43:26;;;;;;;1999.90;999.90;;;31.20;29.50;;;;;;5054011;28;20244;-57
2021/03/28 11:46:05;;;;;;;1999.90;999.90;;;31.00;29.40;;;;;;5053918;28;20169;-55
2021/03/28 11:48:53;;;;;;;1999.90;999.90;;;30.30;29.30;;;;;;5053897;28;20173;-55
2021/03/28 11:51:24;;;;;;;1999.90;999.90;;;30.30;29.10;;;;;;5053699;28;20166;-55
2021/03/28 11:54:08;;;;;;;1999.90;999.90;;;30.40;29.60;;;;;;5053660;28;20643;-55
2021/03/28 11:56:42;;;;;;;1999.90;999.90;;;30.60;28.80;;;;;;5053715;28;20164;-55
2021/03/28 11:59:45;;;;;;;1999.90;999.90;;;30.90;29.00;;;;;;5053626;28;20640;-56
2021/03/28 12:02:12;;;;;;;1999.90;999.90;;;31.20;28.70;;;;;;5053580;28;20163;-46
2021/03/28 12:04:58;;;;;;;1999.90;999.90;;;31.00;27.70;;;;;;5053514;28;20165;-56
2021/03/28 12:07:46;;;;;;;1999.90;999.90;;;31.40;28.30;;;;;;5053570;28;20197;-57
2021/03/28 12:10:36;;;;;;;1999.90;999.90;;;31.70;27.80;;;;;;5053415;28;20184;-56
2021/03/28 12:13:42;;;;;;;1999.90;999.90;;;32.10;27.70;;;;;;5053395;28;20201;-56
2021/03/28 12:16:10;;;;;;;1999.90;999.90;;;32.40;27.00;;;;;;5053350;28;20168;-57
2021/03/28 12:18:42;;;;;;;1999.90;999.90;;;32.50;26.90;;;;;;5053222;28;20199;-54
2021/03/28 12:21:08;;;;;;;1999.90;999.90;;;32.20;27.10;;;;;;5052378;28;20521;-52
2021/03/28 12:23:41;;;;;;;1999.90;999.90;;;32.10;27.00;;;;;;5053365;28;20244;-57
2021/03/28 12:26:17;;;;;;;1999.90;999.90;;;31.90;27.60;;;;;;5053131;28;20197;-50
2021/03/28 12:28:47;;;;;;;1999.90;999.90;;;31.60;27.30;;;;;;5053242;28;20169;-56
2021/03/28 12:31:39;;;;;;;1999.90;999.90;;;31.60;27.50;;;;;;5053081;28;20635;-56
2021/03/28 12:34:17;;;;;;;1999.90;999.90;;;31.00;27.90;;;;;;5052955;28;20208;-56
2021/03/28 12:36:53;;;;;;;1999.90;999.90;;;30.70;28.00;;;;;;5053110;28;20173;-56
2021/03/28 12:39:34;;;;;;;1999.90;999.90;;;30.70;28.30;;;;;;5053273;28;20271;-48
2021/03/28 12:42:24;;;;;;;1999.90;999.90;;;31.20;28.50;;;;;;5053098;28;20169;-55
2021/03/28 12:45:13;;;;;;;1999.90;999.90;;;31.50;28.10;;;;;;5052955;28;20674;-56
2021/03/28 12:47:49;;;;;;;1999.90;999.90;;;31.60;27.80;;;;;;5052830;28;20215;-53
2021/03/28 12:50:18;;;;;;;1999.90;999.90;;;32.00;27.40;;;;;;5052912;28;20157;-53
2021/03/28 12:52:52;;;;;;;1999.90;999.90;;;32.00;27.40;;;;;;5052801;28;20161;-49
2021/03/28 12:55:28;;;;;;;1999.90;999.90;;;32.10;28.00;;;;;;5052794;28;20157;-44
2021/03/28 12:57:58;;;;;;;1999.90;999.90;;;32.10;26.60;;;;;;5052671;28;20219;-43
2021/03/28 13:00:51;;;;;;;1999.90;999.90;;;32.20;26.40;;;;;;5052718;28;20632;-54
2021/03/28 13:03:28;;;;;;;1999.90;999.90;;;32.40;26.40;;;;;;5052776;28;20161;-37
2021/03/28 13:06:04;;;;;;;1999.90;999.90;;;32.60;26.30;;;;;;5052790;28;20207;-56
2021/03/28 13:08:45;;;;;;;1999.90;999.90;;;32.70;26.00;;;;;;5052922;28;20164;-46
2021/03/28 13:11:12;;;;;;;1999.90;999.90;;;32.70;26.10;;;;;;5052700;28;20160;-58
2021/03/28 13:13:48;;;;;;;1999.90;999.90;;;32.70;26.30;;;;;;5052570;28;20643;-48
2021/03/28 13:16:27;;;;;;;1999.90;999.90;;;32.70;26.30;;;;;;5052414;28;20157;-57
2021/03/28 13:18:57;;;;;;;1999.90;999.90;;;32.80;25.80;;;;;;5052358;28;20240;-56
2021/03/28 13:21:37;;;;;;;1999.90;999.90;;;32.50;26.30;;;;;;5052483;28;20180;-57
2021/03/28 13:24:07;;;;;;;1999.90;999.90;;;32.40;26.30;;;;;;5052789;28;20207;-57
2021/03/28 13:26:35;;;;;;;1999.90;999.90;;;32.30;26.20;;;;;;5052381;28;20200;-57
2021/03/28 13:29:05;;;;;;;1999.90;999.90;;;32.50;26.00;;;;;;5052584;28;20165;-56
2021/03/28 13:31:38;;;;;;;1999.90;999.90;;;32.50;26.30;;;;;;5053806;28;20199;-56
2021/03/28 13:34:32;;;;;;;1999.90;999.90;;;32.30;26.50;;;;;;5056072;28;20714;-47